Time;durP1;ratioP1;P1;durP2;ratioP2;P2;SDS_P1;SDS_P2;PMS_P1;PMS_P2;Temp;Humidity;BMP_temperature;BMP_pressure;BME280_temperature;BME280_humidity;BME280_pressure;Samples;Min_cycle;Max_cycle;Signal;HPM_P1;HPM_P2
2022/08/19 00:01:29;;;;;;;20.37;12.33;;;22.60;99.90;;;;;;5051114;28;20644;-66
2022/08/19 00:03:58;;;;;;;16.17;12.00;;;22.70;99.90;;;;;;5051123;28;20190;-66
2022/08/19 00:06:26;;;;;;;15.73;11.83;;;22.60;99.90;;;;;;5050949;28;20736;-67
2022/08/19 00:08:53;;;;;;;18.70;12.50;;;22.60;99.90;;;;;;5050909;28;20195;-68
2022/08/19 00:11:20;;;;;;;16.97;12.30;;;22.60;99.90;;;;;;5051010;28;20199;-67
2022/08/19 00:13:52;;;;;;;14.77;11.63;;;22.50;99.90;;;;;;5050783;28;20214;-68
2022/08/19 00:16:20;;;;;;;18.07;12.17;;;22.60;99.90;;;;;;5052301;28;20187;-67
2022/08/19 00:18:53;;;;;;;17.80;12.80;;;22.60;99.90;;;;;;5051051;28;20195;-69
2022/08/19 00:21:20;;;;;;;19.77;11.90;;;22.60;99.90;;;;;;5050505;28;20294;-68
2022/08/19 00:23:47;;;;;;;26.00;12.57;;;22.60;99.90;;;;;;5051865;28;20205;-69
2022/08/19 00:26:14;;;;;;;15.77;11.43;;;22.60;99.90;;;;;;5050777;28;20205;-67
2022/08/19 00:28:41;;;;;;;19.03;12.03;;;22.60;99.90;;;;;;5051947;28;20568;-67
2022/08/19 00:31:09;;;;;;;16.20;11.70;;;22.60;99.90;;;;;;5051792;28;20214;-69
2022/08/19 00:33:36;;;;;;;17.50;11.73;;;22.50;99.90;;;;;;5051770;28;20205;-68
2022/08/19 00:36:06;;;;;;;20.93;11.90;;;22.50;99.90;;;;;;5050256;28;20666;-67
2022/08/19 00:38:34;;;;;;;16.67;11.53;;;22.50;99.90;;;;;;5050814;28;20206;-68
2022/08/19 00:41:05;;;;;;;18.80;11.53;;;22.50;99.90;;;;;;5051851;28;20248;-67
2022/08/19 00:43:33;;;;;;;19.13;12.03;;;22.40;99.90;;;;;;5050348;28;20201;-69
2022/08/19 00:46:04;;;;;;;16.40;12.07;;;22.50;99.90;;;;;;5050712;28;20194;-68
2022/08/19 00:48:33;;;;;;;18.00;11.73;;;22.40;99.90;;;;;;5050666;28;20260;-68
2022/08/19 00:51:01;;;;;;;18.57;12.03;;;22.40;99.90;;;;;;5050595;28;20244;-68
2022/08/19 00:53:31;;;;;;;17.57;11.73;;;22.30;99.90;;;;;;5051126;28;20313;-68
2022/08/19 00:56:00;;;;;;;16.93;11.97;;;22.40;99.90;;;;;;5050226;28;20218;-68
2022/08/19 00:58:32;;;;;;;18.87;11.67;;;22.30;99.90;;;;;;5050225;28;20245;-67
2022/08/19 01:01:00;;;;;;;15.87;11.50;;;22.30;99.90;;;;;;5050548;28;20203;-68
2022/08/19 01:03:27;;;;;;;20.57;12.57;;;22.30;99.90;;;;;;5050189;28;20195;-69
2022/08/19 01:06:14;;;;;;;19.27;11.83;;;22.30;99.90;;;;;;5050113;28;20202;-67
2022/08/19 01:08:46;;;;;;;21.53;12.23;;;22.20;99.90;;;;;;5050082;28;20198;-69
2022/08/19 01:11:16;;;;;;;18.97;12.80;;;22.20;99.90;;;;;;5051479;28;20530;-68
2022/08/19 01:13:45;;;;;;;18.90;12.50;;;22.20;99.90;;;;;;5033549;28;20648;-69
2022/08/19 01:16:18;;;;;;;21.73;13.03;;;22.10;99.90;;;;;;5051479;28;20187;-70
2022/08/19 01:18:45;;;;;;;19.17;12.23;;;22.00;99.90;;;;;;5050001;28;20199;-68
2022/08/19 01:21:32;;;;;;;20.67;12.80;;;22.00;99.90;;;;;;5049957;28;20198;-66
2022/08/19 01:23:59;;;;;;;18.60;12.90;;;22.00;99.90;;;;;;5049825;28;20209;-66
2022/08/19 01:26:27;;;;;;;19.93;12.87;;;21.90;99.90;;;;;;5051093;28;20198;-67
2022/08/19 01:28:58;;;;;;;21.37;13.50;;;21.90;99.90;;;;;;5051675;28;20249;-68
2022/08/19 01:31:30;;;;;;;18.70;12.50;;;21.90;99.90;;;;;;5050163;28;20229;-69
2022/08/19 01:34:00;;;;;;;20.53;12.87;;;21.80;99.90;;;;;;5051193;28;20207;-68
2022/08/19 01:36:33;;;;;;;21.47;13.40;;;21.80;99.90;;;;;;5049831;28;20199;-67
2022/08/19 01:39:03;;;;;;;21.83;13.40;;;21.70;99.90;;;;;;5050276;28;20199;-68
2022/08/19 01:41:30;;;;;;;21.30;13.33;;;21.70;99.90;;;;;;5053585;28;20202;-67
2022/08/19 01:43:57;;;;;;;21.33;13.53;;;21.60;99.90;;;;;;5053629;28;20203;-68
2022/08/19 01:46:44;;;;;;;25.23;14.10;;;21.60;99.90;;;;;;5053883;28;20294;-66
2022/08/19 01:49:11;;;;;;;22.77;13.90;;;21.60;99.90;;;;;;5053904;28;20202;-68
2022/08/19 01:51:38;;;;;;;16.70;13.20;;;21.50;99.90;;;;;;5054570;28;20187;-68
2022/08/19 01:54:11;;;;;;;20.07;13.33;;;21.50;99.90;;;;;;5053156;28;20231;-75
2022/08/19 01:56:38;;;;;;;17.63;12.80;;;21.50;99.90;;;;;;5053387;28;20226;-76
2022/08/19 01:59:11;;;;;;;23.00;13.77;;;21.50;99.90;;;;;;5053586;28;20195;-77
2022/08/19 02:01:38;;;;;;;21.00;13.37;;;21.50;99.90;;;;;;5054573;28;20202;-79
2022/08/19 02:04:06;;;;;;;18.50;13.77;;;21.50;99.90;;;;;;5054547;28;20183;-76
2022/08/19 02:06:33;;;;;;;17.70;12.90;;;21.50;99.90;;;;;;5054602;28;20195;-75
2022/08/19 02:09:00;;;;;;;21.73;13.77;;;21.50;99.90;;;;;;5053200;28;20811;-76
2022/08/19 02:11:33;;;;;;;18.47;13.07;;;21.50;99.90;;;;;;5054338;28;20679;-78
2022/08/19 02:14:02;;;;;;;19.40;13.40;;;21.50;99.90;;;;;;5054278;28;20705;-77
2022/08/19 02:16:30;;;;;;;18.43;13.07;;;21.40;99.90;;;;;;5054450;28;20233;-80
2022/08/19 02:19:07;;;;;;;18.53;13.70;;;21.40;99.90;;;;;;5053984;28;20195;-81
2022/08/19 02:21:43;;;;;;;19.60;13.50;;;21.40;99.90;;;;;;5053675;28;20639;-81
2022/08/19 02:24:10;;;;;;;22.37;13.93;;;21.40;99.90;;;;;;5054246;28;20209;-80
2022/08/19 02:26:37;;;;;;;22.50;14.30;;;21.40;99.90;;;;;;5054085;28;20301;-78
2022/08/19 02:29:04;;;;;;;19.37;13.33;;;21.30;99.90;;;;;;5053957;28;20203;-78
2022/08/19 02:31:30;;;;;;;19.23;13.40;;;21.30;99.90;;;;;;5053925;28;20233;-79
2022/08/19 02:33:58;;;;;;;19.30;13.93;;;21.20;99.90;;;;;;5053889;28;20205;-79
2022/08/19 02:36:25;;;;;;;20.20;13.50;;;21.20;99.90;;;;;;5054021;28;20281;-79
2022/08/19 02:38:53;;;;;;;19.60;13.00;;;21.20;99.90;;;;;;5037997;28;20203;-79
2022/08/19 02:41:27;;;;;;;19.77;13.57;;;21.20;99.90;;;;;;5054102;28;20248;-83
2022/08/19 02:43:56;;;;;;;18.63;13.33;;;21.10;99.90;;;;;;5054245;28;20293;-77
2022/08/19 02:46:46;;;;;;;17.53;12.90;;;21.10;99.90;;;;;;5053852;28;20199;-79
2022/08/19 02:49:14;;;;;;;16.93;13.27;;;21.10;99.90;;;;;;5053886;28;20217;-79
2022/08/19 02:51:44;;;;;;;21.13;13.97;;;21.10;99.90;;;;;;5053614;28;20289;-77
2022/08/19 02:54:12;;;;;;;17.83;13.77;;;21.10;99.90;;;;;;5053428;28;20599;-79
2022/08/19 02:56:41;;;;;;;18.10;13.77;;;21.00;99.90;;;;;;5053352;28;20225;-79
2022/08/19 02:59:15;;;;;;;22.77;14.27;;;21.00;99.90;;;;;;5053900;28;20209;-81
2022/08/19 03:01:48;;;;;;;20.40;13.77;;;21.00;99.90;;;;;;5053335;28;20556;-80
2022/08/19 03:04:16;;;;;;;18.90;13.13;;;21.00;99.90;;;;;;5054572;28;20191;-77
2022/08/19 03:06:46;;;;;;;19.43;13.30;;;20.90;99.90;;;;;;5053463;28;20201;-81
2022/08/19 03:09:14;;;;;;;22.70;13.20;;;20.90;99.90;;;;;;5053213;28;20203;-78
2022/08/19 03:11:41;;;;;;;19.10;13.10;;;20.90;99.90;;;;;;5054382;28;20219;-79
2022/08/19 03:14:09;;;;;;;18.30;13.60;;;20.90;99.90;;;;;;5053560;28;20191;-80
2022/08/19 03:16:45;;;;;;;20.10;13.73;;;20.90;99.90;;;;;;5054568;28;20253;-80
2022/08/19 03:19:13;;;;;;;22.27;13.60;;;20.80;99.90;;;;;;5053137;28;20660;-80
2022/08/19 03:21:44;;;;;;;19.37;13.77;;;20.80;99.90;;;;;;5053257;28;20552;-80
2022/08/19 03:24:18;;;;;;;21.97;13.37;;;20.80;99.90;;;;;;5053856;28;20205;-81
2022/08/19 03:26:57;;;;;;;23.50;13.77;;;20.80;99.90;;;;;;5044897;22;20265;-80
2022/08/19 03:29:37;;;;;;;18.90;13.70;;;20.80;99.90;;;;;;5016356;28;20610;-80
2022/08/19 03:32:09;;;;;;;19.93;14.10;;;20.80;99.90;;;;;;5017272;28;20760;-78
2022/08/19 03:35:02;;;;;;;20.37;13.57;;;20.80;99.90;;;;;;5033105;28;20223;-79
2022/08/19 03:37:29;;;;;;;19.07;13.00;;;20.80;99.90;;;;;;5034237;28;20286;-77
2022/08/19 03:39:56;;;;;;;22.47;14.23;;;20.80;99.90;;;;;;5016164;28;20591;-78
2022/08/19 03:42:23;;;;;;;20.07;13.50;;;20.70;99.90;;;;;;5033936;28;20235;-78
2022/08/19 03:45:10;;;;;;;20.93;13.87;;;20.80;99.90;;;;;;5032741;28;20552;-78
2022/08/19 03:47:37;;;;;;;20.10;13.70;;;20.70;99.90;;;;;;5033319;28;20234;-79
2022/08/19 03:50:05;;;;;;;27.00;14.87;;;20.70;99.90;;;;;;5032775;28;20231;-79
2022/08/19 03:52:31;;;;;;;19.47;13.53;;;20.70;99.90;;;;;;5032659;28;20210;-77
2022/08/19 03:54:59;;;;;;;22.50;14.37;;;20.80;99.90;;;;;;5032483;28;20226;-78
2022/08/19 03:57:26;;;;;;;18.70;14.33;;;20.80;99.90;;;;;;5032428;28;20196;-78
2022/08/19 03:59:58;;;;;;;22.77;13.90;;;20.80;99.90;;;;;;5032235;28;20191;-78
2022/08/19 04:02:41;;;;;;;21.27;13.87;;;20.80;99.90;;;;;;5031988;28;20199;-78
2022/08/19 04:05:29;;;;;;;25.70;14.63;;;20.90;99.90;;;;;;5032772;28;20226;-77
2022/08/19 04:07:58;;;;;;;20.40;14.07;;;20.90;99.90;;;;;;5032321;28;20526;-78
2022/08/19 04:10:28;;;;;;;18.77;14.07;;;20.90;99.90;;;;;;5032214;28;20610;-78
2022/08/19 04:12:55;;;;;;;22.30;14.17;;;20.90;99.90;;;;;;5032456;28;20597;-78
2022/08/19 04:15:22;;;;;;;21.13;13.97;;;21.00;99.90;;;;;;5033451;28;20345;-77
2022/08/19 04:17:49;;;;;;;19.67;13.80;;;21.00;99.90;;;;;;5032421;28;20290;-78
2022/08/19 04:20:18;;;;;;;21.83;13.97;;;21.00;99.90;;;;;;5032034;28;20233;-78
2022/08/19 04:22:46;;;;;;;21.87;14.23;;;21.10;99.90;;;;;;5047109;22;20333;-78
2022/08/19 04:25:16;;;;;;;22.97;14.43;;;21.10;99.90;;;;;;5035123;28;20194;-78
2022/08/19 04:27:46;;;;;;;22.03;14.53;;;21.20;99.90;;;;;;5035341;28;20193;-78
2022/08/19 04:30:13;;;;;;;22.37;14.30;;;21.20;99.90;;;;;;5035110;28;20261;-79
2022/08/19 04:32:43;;;;;;;21.63;14.03;;;21.30;99.90;;;;;;5035122;28;20224;-78
2022/08/19 04:35:10;;;;;;;21.20;14.63;;;21.40;99.90;;;;;;5035413;28;20214;-78
2022/08/19 04:37:45;;;;;;;20.80;13.50;;;21.40;99.90;;;;;;5034959;28;20212;-78
2022/08/19 04:42:57;;;;;;;25.83;15.63;;;21.50;99.90;;;;;;5035134;28;20644;-78
2022/08/19 04:45:24;;;;;;;23.20;14.73;;;21.70;99.90;;;;;;5035075;28;20237;-78
2022/08/19 04:47:56;;;;;;;28.30;15.53;;;21.70;99.90;;;;;;5035243;28;20182;-78
2022/08/19 04:50:28;;;;;;;19.80;13.57;;;21.80;99.90;;;;;;5018782;28;20218;-77
2022/08/19 04:52:55;;;;;;;19.93;14.10;;;21.90;99.90;;;;;;5034969;28;20207;-79
2022/08/19 04:55:25;;;;;;;20.83;13.97;;;21.90;99.90;;;;;;5051619;28;20575;-77
2022/08/19 04:57:52;;;;;;;21.33;14.40;;;22.00;99.90;;;;;;5018564;28;20268;-79
2022/08/19 05:00:19;;;;;;;21.40;14.17;;;22.00;99.90;;;;;;5034867;28;20643;-80
2022/08/19 05:02:46;;;;;;;21.00;14.33;;;22.00;99.90;;;;;;5034911;28;20197;-79
2022/08/19 05:05:13;;;;;;;22.37;14.03;;;22.00;99.90;;;;;;5034795;28;20253;-78
2022/08/19 05:07:40;;;;;;;20.07;12.97;;;22.00;99.90;;;;;;5034874;28;20274;-78
2022/08/19 05:10:08;;;;;;;21.93;13.50;;;22.00;99.90;;;;;;5035026;28;20198;-78
2022/08/19 05:12:35;;;;;;;26.00;13.77;;;22.10;99.90;;;;;;5035005;28;20202;-78
2022/08/19 05:15:09;;;;;;;22.70;13.43;;;22.20;99.90;;;;;;5035957;28;20759;-77
2022/08/19 05:17:36;;;;;;;20.03;13.60;;;22.30;99.90;;;;;;5038839;28;20197;-78
2022/08/19 05:22:53;;;;;;;21.53;14.20;;;22.40;99.90;;;;;;5038241;28;20241;-79
2022/08/19 05:25:21;;;;;;;20.03;13.27;;;22.40;99.90;;;;;;5056522;28;20654;-81
2022/08/19 05:27:48;;;;;;;25.60;13.87;;;22.50;99.90;;;;;;5056770;28;20211;-79
2022/08/19 05:30:16;;;;;;;18.00;13.43;;;22.50;99.90;;;;;;5038351;28;20219;-78
2022/08/19 05:32:44;;;;;;;16.53;12.87;;;22.50;99.90;;;;;;5038468;28;20230;-80
2022/08/19 05:35:11;;;;;;;17.40;13.40;;;22.60;99.90;;;;;;5093034;22;20257;-81
2022/08/19 05:37:41;;;;;;;19.50;12.93;;;22.60;99.90;;;;;;5054210;28;20573;-81
2022/08/19 05:40:09;;;;;;;18.30;13.25;;;22.60;99.90;;;;;;5038575;28;20199;-80
2022/08/19 05:42:37;;;;;;;19.07;13.53;;;22.70;99.90;;;;;;5054978;28;20219;-81
2022/08/19 05:45:06;;;;;;;24.07;13.57;;;22.70;99.90;;;;;;5056405;28;20203;-81
2022/08/19 05:47:36;;;;;;;20.50;14.03;;;22.80;99.90;;;;;;5064103;22;20227;-80
2022/08/19 05:50:08;;;;;;;21.23;14.17;;;22.90;99.90;;;;;;5055212;28;20215;-80
2022/08/19 05:52:37;;;;;;;20.93;13.50;;;23.00;99.90;;;;;;5056263;28;20739;-82
2022/08/19 05:55:10;;;;;;;23.60;13.43;;;23.00;99.90;;;;;;5055256;28;20220;-81
2022/08/19 05:57:37;;;;;;;17.30;12.47;;;23.10;99.90;;;;;;5055140;28;20557;-80
2022/08/19 06:00:10;;;;;;;19.60;13.23;;;23.10;99.90;;;;;;5055023;28;20293;-80
2022/08/19 06:02:37;;;;;;;22.13;14.13;;;23.10;99.90;;;;;;5056036;28;20198;-81
2022/08/19 06:05:08;;;;;;;24.15;14.07;;;23.10;99.90;;;;;;5055129;28;20187;-82
2022/08/19 06:07:41;;;;;;;17.67;13.50;;;23.10;99.90;;;;;;5054571;28;20629;-81
2022/08/19 06:10:11;;;;;;;21.88;13.95;;;23.20;99.90;;;;;;5055554;28;20183;-81
2022/08/19 06:12:38;;;;;;;19.87;13.53;;;23.30;99.90;;;;;;5037936;28;20687;-79
2022/08/19 06:15:13;;;;;;;18.90;13.37;;;23.40;99.90;;;;;;5055491;28;20202;-80
2022/08/19 06:17:41;;;;;;;20.27;14.47;;;23.50;99.90;;;;;;5055430;28;20182;-80
2022/08/19 06:20:13;;;;;;;19.95;13.40;;;23.40;99.90;;;;;;5054677;28;20206;-80
2022/08/19 06:22:43;;;;;;;18.80;14.00;;;23.40;99.90;;;;;;5037767;28;20873;-80
2022/08/19 06:25:12;;;;;;;20.67;13.97;;;23.40;99.90;;;;;;5054818;28;20590;-79
2022/08/19 06:27:39;;;;;;;21.70;13.90;;;23.50;99.90;;;;;;5053880;28;20203;-79
2022/08/19 06:30:30;;;;;;;18.27;14.05;;;23.60;99.90;;;;;;5055011;28;20318;-79
2022/08/19 06:32:57;;;;;;;21.65;14.32;;;23.70;99.90;;;;;;5080529;22;20235;-80
2022/08/19 06:35:25;;;;;;;23.70;14.60;;;23.70;99.90;;;;;;5017611;28;20365;-79
2022/08/19 06:37:52;;;;;;;23.63;15.02;;;23.80;99.90;;;;;;5017494;28;20237;-80
2022/08/19 06:40:19;;;;;;;26.83;15.50;;;23.90;99.90;;;;;;5035397;28;20196;-81
2022/08/19 06:42:46;;;;;;;21.75;14.38;;;23.90;99.90;;;;;;5035091;28;20192;-77
2022/08/19 06:45:22;;;;;;;17.90;13.87;;;24.00;99.90;;;;;;5035401;23;20284;-80
2022/08/19 06:47:55;;;;;;;17.63;14.25;;;24.10;99.90;;;;;;5021050;28;20191;-78
2022/08/19 06:50:25;;;;;;;19.75;13.70;;;24.10;99.90;;;;;;5036941;28;20294;-78
2022/08/19 06:52:54;;;;;;;22.63;13.70;;;24.20;99.90;;;;;;5036636;28;20233;-80
2022/08/19 06:55:21;;;;;;;19.63;14.07;;;24.20;99.90;;;;;;5037111;28;20214;-78
2022/08/19 06:57:50;;;;;;;19.92;14.07;;;24.30;99.90;;;;;;5036923;28;20603;-79
2022/08/19 07:00:17;;;;;;;20.80;13.77;;;24.40;99.90;;;;;;5036856;28;20210;-79
2022/08/19 07:02:45;;;;;;;19.75;13.73;;;24.50;99.90;;;;;;5036535;28;20226;-79
2022/08/19 07:05:21;;;;;;;18.80;13.15;;;24.60;99.90;;;;;;5037167;28;20187;-79
2022/08/19 07:07:48;;;;;;;21.95;13.85;;;24.80;99.90;;;;;;5054406;28;20552;-83
2022/08/19 07:10:17;;;;;;;18.35;12.82;;;24.90;99.90;;;;;;5036466;28;20570;-79
2022/08/19 07:12:44;;;;;;;17.38;12.32;;;25.00;99.90;;;;;;5054040;28;20777;-80
2022/08/19 07:15:11;;;;;;;18.10;12.93;;;24.90;99.90;;;;;;5036218;28;20213;-79
2022/08/19 07:17:40;;;;;;;28.00;14.60;;;25.00;99.90;;;;;;5036459;28;20317;-79
2022/08/19 07:20:09;;;;;;;27.65;13.80;;;25.10;99.90;;;;;;5054362;28;20616;-79
2022/08/19 07:22:39;;;;;;;17.35;12.85;;;25.20;99.90;;;;;;5036666;28;20199;-79
2022/08/19 07:25:08;;;;;;;19.70;13.15;;;25.30;99.90;;;;;;5054183;28;20241;-80
2022/08/19 07:27:36;;;;;;;16.73;13.10;;;25.40;99.90;;;;;;5054668;28;20202;-80
2022/08/19 07:30:08;;;;;;;21.35;12.80;;;25.50;99.90;;;;;;5020554;28;20260;-80
2022/08/19 07:32:38;;;;;;;19.42;12.75;;;25.60;99.90;;;;;;5036200;28;20202;-78
2022/08/19 07:35:06;;;;;;;17.67;12.70;;;25.70;99.90;;;;;;5035937;28;20271;-79
2022/08/19 07:37:36;;;;;;;19.23;12.40;;;25.80;99.90;;;;;;5018821;28;20199;-77
2022/08/19 07:40:05;;;;;;;14.18;11.73;;;25.90;99.90;;;;;;5036581;28;20210;-77
2022/08/19 07:42:32;;;;;;;17.83;11.95;;;26.00;99.90;;;;;;5035741;28;20187;-78
2022/08/19 07:44:59;;;;;;;17.75;11.60;;;26.10;99.90;;;;;;5035686;28;20322;-78
2022/08/19 07:47:31;;;;;;;16.58;11.50;;;26.20;99.90;;;;;;5035769;28;20210;-79
2022/08/19 07:50:20;;;;;;;19.15;12.13;;;26.40;99.90;;;;;;5054009;28;20198;-78
2022/08/19 07:52:53;;;;;;;19.67;11.73;;;26.50;99.90;;;;;;5039643;23;20723;-78
2022/08/19 07:55:24;;;;;;;16.73;11.82;;;26.60;99.90;;;;;;5015673;28;20203;-79
2022/08/19 07:58:10;;;;;;;20.98;12.52;;;26.80;99.90;;;;;;5032274;28;20187;-80
2022/08/19 08:00:37;;;;;;;18.88;11.38;;;26.90;99.90;;;;;;5032729;28;20195;-76
2022/08/19 08:03:04;;;;;;;14.45;11.45;;;27.00;99.90;;;;;;5032218;28;20199;-73
2022/08/19 08:11:03;;;;;;;18.15;11.75;;;27.50;99.90;;;;;;5032457;28;20294;-74
2022/08/19 08:13:37;;;;;;;18.88;11.40;;;28.00;99.90;;;;;;5032381;28;20763;-77
2022/08/19 08:16:06;;;;;;;14.70;11.35;;;28.50;99.90;;;;;;5048873;28;20220;-81
2022/08/19 08:18:42;;;;;;;15.38;11.05;;;28.90;99.90;;;;;;5032470;28;20205;-79
2022/08/19 08:21:16;;;;;;;19.00;11.40;;;29.30;99.90;;;;;;5042408;22;20313;-80
2022/08/19 08:23:43;;;;;;;16.75;11.52;;;29.60;99.90;;;;;;5035226;28;20290;-77
2022/08/19 08:26:10;;;;;;;18.35;10.82;;;29.80;99.90;;;;;;5053297;28;20194;-80
2022/08/19 08:28:38;;;;;;;21.15;12.13;;;30.00;99.90;;;;;;5053309;28;20732;-75
2022/08/19 08:31:06;;;;;;;19.40;11.48;;;30.10;99.90;;;;;;5034871;28;20207;-75
2022/08/19 08:33:35;;;;;;;15.20;10.57;;;30.30;99.90;;;;;;5022488;23;20263;-75
2022/08/19 08:36:05;;;;;;;15.68;11.38;;;30.30;99.90;;;;;;5016380;28;20219;-74
2022/08/19 08:38:33;;;;;;;13.20;10.60;;;30.30;99.90;;;;;;5016592;28;20187;-75
2022/08/19 08:41:28;;;;;;;15.38;10.55;;;30.40;99.90;;;;;;5017419;28;20210;-75
2022/08/19 08:43:58;;;;;;;12.88;10.32;;;30.70;99.90;;;;;;4999662;28;20188;-75
2022/08/19 08:46:49;;;;;;;17.23;11.32;;;30.80;99.90;;;;;;4998695;28;20200;-76
2022/08/19 08:49:27;;;;;;;15.23;10.30;;;30.80;99.90;;;;;;5015312;28;20708;-76
2022/08/19 08:52:13;;;;;;;16.20;11.00;;;31.10;99.90;;;;;;5033306;28;20237;-76
2022/08/19 08:54:44;;;;;;;14.60;9.90;;;31.30;99.90;;;;;;5032912;28;20191;-76
2022/08/19 08:57:34;;;;;;;13.52;9.60;;;31.40;99.90;;;;;;5015086;28;20242;-75
2022/08/19 09:00:17;;;;;;;15.02;9.30;;;31.50;99.90;;;;;;5015562;28;20191;-75
2022/08/19 09:02:44;;;;;;;11.23;8.73;;;31.50;99.90;;;;;;5016319;28;20644;-75
2022/08/19 09:05:19;;;;;;;12.38;8.95;;;31.90;99.90;;;;;;5018443;28;20196;-82
2022/08/19 09:08:04;;;;;;;15.02;8.93;;;31.90;99.90;;;;;;5015523;28;20223;-85
2022/08/19 09:10:52;;;;;;;14.02;8.57;;;31.80;99.90;;;;;;5016338;28;20572;-76
2022/08/19 09:14:04;;;;;;;12.52;9.10;;;31.90;99.90;;;;;;5017543;28;20192;-74
2022/08/19 09:16:31;;;;;;;14.40;8.55;;;31.80;99.90;;;;;;5014849;28;20618;-75
2022/08/19 09:19:02;;;;;;;13.50;8.25;;;32.10;99.90;;;;;;5015066;28;20199;-74
2022/08/19 09:21:36;;;;;;;14.23;8.50;;;32.20;99.90;;;;;;5014917;28;20225;-74
2022/08/19 09:24:06;;;;;;;14.50;8.65;;;32.40;99.90;;;;;;5015661;28;20195;-84
2022/08/19 09:26:34;;;;;;;10.93;7.93;;;32.60;99.90;;;;;;4998738;28;20234;-73
2022/08/19 09:29:18;;;;;;;15.30;8.10;;;32.50;99.90;;;;;;5014761;28;20191;-73
2022/08/19 09:31:49;;;;;;;11.07;8.15;;;32.60;99.90;;;;;;5031012;28;20227;-74
2022/08/19 09:34:19;;;;;;;12.65;8.38;;;32.90;99.90;;;;;;5015256;28;20322;-74
2022/08/19 09:36:52;;;;;;;11.93;8.10;;;33.00;99.90;;;;;;5015110;28;20313;-73
2022/08/19 09:39:21;;;;;;;15.35;8.70;;;33.30;99.90;;;;;;5033858;28;20547;-79
2022/08/19 09:41:49;;;;;;;12.95;8.50;;;33.50;99.90;;;;;;5016982;28;20261;-73
2022/08/19 09:44:17;;;;;;;10.65;8.32;;;33.60;99.90;;;;;;5015800;28;20659;-73
2022/08/19 09:46:46;;;;;;;11.45;8.38;;;33.70;99.90;;;;;;5014532;28;20218;-73
2022/08/19 09:49:16;;;;;;;14.10;8.30;;;33.80;99.90;;;;;;5014599;28;20653;-75
2022/08/19 09:51:44;;;;;;;10.55;7.85;;;33.90;99.90;;;;;;5014962;28;20207;-74
2022/08/19 09:54:18;;;;;;;10.13;7.55;;;34.10;99.90;;;;;;5014703;28;20204;-78
2022/08/19 09:56:51;;;;;;;15.43;7.68;;;34.30;99.90;;;;;;5014797;28;20225;-75
2022/08/19 09:59:18;;;;;;;11.68;7.75;;;34.50;99.90;;;;;;5014512;28;20195;-75
2022/08/19 10:01:45;;;;;;;10.95;7.35;;;34.50;99.90;;;;;;5017030;28;20294;-74
2022/08/19 10:04:12;;;;;;;13.50;7.68;;;34.70;99.90;;;;;;5019857;28;20218;-80
2022/08/19 10:06:48;;;;;;;12.13;7.53;;;34.70;99.90;;;;;;5019419;28;20663;-84
2022/08/19 10:09:19;;;;;;;10.90;7.32;;;34.70;99.90;;;;;;5019002;28;20191;-73
2022/08/19 10:12:09;;;;;;;10.18;7.28;;;34.90;99.90;;;;;;5019279;28;20210;-75
2022/08/19 10:14:37;;;;;;;11.27;7.90;;;35.30;99.70;;;;;;5017874;28;20196;-73
2022/08/19 10:17:05;;;;;;;18.08;7.78;;;35.00;99.20;;;;;;5017690;28;20219;-73
2022/08/19 10:19:47;;;;;;;12.00;7.47;;;35.20;99.50;;;;;;5018640;28;20237;-86
2022/08/19 10:22:24;;;;;;;12.65;7.80;;;35.40;98.80;;;;;;5035945;28;20260;-74
2022/08/19 10:24:52;;;;;;;13.25;7.53;;;35.40;97.80;;;;;;5018181;28;20593;-80
2022/08/19 10:27:19;;;;;;;10.88;7.28;;;35.50;97.20;;;;;;5017826;28;20606;-84
2022/08/19 10:29:47;;;;;;;11.40;7.05;;;35.40;96.70;;;;;;5035037;28;20192;-84
2022/08/19 10:32:14;;;;;;;12.13;7.60;;;35.60;97.10;;;;;;5017523;28;20294;-76
2022/08/19 10:34:42;;;;;;;10.80;7.60;;;35.50;96.40;;;;;;5035100;28;20219;-74
2022/08/19 10:37:17;;;;;;;14.07;7.88;;;35.90;96.40;;;;;;5035425;28;20697;-73
2022/08/19 10:39:50;;;;;;;17.52;7.53;;;36.20;95.00;;;;;;5017274;28;20195;-74
2022/08/19 10:42:18;;;;;;;12.30;7.28;;;36.40;94.80;;;;;;5017667;28;20200;-79
2022/08/19 10:44:46;;;;;;;10.88;7.30;;;36.40;94.30;;;;;;5017693;28;20306;-77
2022/08/19 10:47:14;;;;;;;11.15;7.82;;;36.50;93.50;;;;;;5017764;28;20214;-74
2022/08/19 10:52:40;;;;;;;12.18;7.10;;;36.70;92.80;;;;;;5017222;28;20226;-78
2022/08/19 10:58:13;;;;;;;10.85;7.85;;;36.90;92.20;;;;;;5017257;28;20233;-73
2022/08/19 11:00:42;;;;;;;11.68;8.18;;;36.70;91.70;;;;;;5035478;28;20217;-77
2022/08/19 11:03:10;;;;;;;12.32;7.78;;;36.60;91.60;;;;;;5017397;28;20208;-73
2022/08/19 11:05:38;;;;;;;11.90;7.50;;;36.60;91.90;;;;;;5017463;28;20667;-74
2022/08/19 11:08:11;;;;;;;10.48;8.05;;;36.50;91.90;;;;;;5018060;28;20195;-75
2022/08/19 11:10:50;;;;;;;12.13;7.93;;;36.40;90.70;;;;;;5034288;28;20683;-80
2022/08/19 11:13:17;;;;;;;12.38;7.78;;;36.40;90.90;;;;;;5034271;28;20682;-80
2022/08/19 11:15:47;;;;;;;13.18;7.78;;;36.50;91.40;;;;;;5016806;28;20222;-74
2022/08/19 11:18:14;;;;;;;12.25;7.80;;;36.80;91.30;;;;;;5037717;28;20757;-73
2022/08/19 11:20:41;;;;;;;9.98;7.78;;;37.10;90.40;;;;;;5016628;28;20614;-81
2022/08/19 11:23:08;;;;;;;14.40;7.70;;;37.30;90.40;;;;;;5016956;28;20617;-76
2022/08/19 11:25:38;;;;;;;9.48;7.57;;;37.30;89.30;;;;;;5016364;28;20612;-75
2022/08/19 11:28:05;;;;;;;8.25;7.38;;;37.30;89.20;;;;;;5034484;28;20554;-79
2022/08/19 11:30:33;;;;;;;10.73;6.90;;;37.30;89.60;;;;;;5016525;28;20219;-83
2022/08/19 11:33:00;;;;;;;11.23;6.72;;;37.60;86.80;;;;;;5016281;28;20199;-74
2022/08/19 11:35:27;;;;;;;9.95;6.78;;;37.70;86.60;;;;;;5016168;28;20235;-74
2022/08/19 11:37:55;;;;;;;12.18;7.57;;;37.80;85.10;;;;;;5034290;28;20313;-74
2022/08/19 11:40:22;;;;;;;13.95;7.63;;;37.70;84.80;;;;;;5016693;28;20199;-75
2022/08/19 11:42:55;;;;;;;11.45;6.90;;;37.90;85.40;;;;;;5016178;28;20219;-74
2022/08/19 11:45:24;;;;;;;11.77;7.05;;;37.90;83.50;;;;;;5016300;28;20629;-73
2022/08/19 11:47:51;;;;;;;11.40;7.47;;;38.20;82.70;;;;;;5016085;28;20200;-73
2022/08/19 11:50:19;;;;;;;12.57;7.00;;;38.10;84.10;;;;;;5034077;28;20200;-73
2022/08/19 11:52:47;;;;;;;11.15;6.90;;;38.10;81.20;;;;;;5033536;28;20191;-72
2022/08/19 11:55:14;;;;;;;10.63;6.53;;;38.10;81.10;;;;;;5032441;28;20294;-74
2022/08/19 11:57:43;;;;;;;13.10;6.60;;;38.30;81.80;;;;;;5015807;28;20233;-74
2022/08/19 12:00:12;;;;;;;8.70;6.22;;;38.60;81.60;;;;;;5016089;28;20637;-75
2022/08/19 12:02:39;;;;;;;10.95;7.30;;;38.90;79.70;;;;;;5033514;28;20623;-73
2022/08/19 12:05:07;;;;;;;10.65;7.00;;;39.00;78.70;;;;;;5015887;28;20624;-73
2022/08/19 12:07:40;;;;;;;11.90;6.70;;;38.80;77.50;;;;;;5016102;28;20196;-73
2022/08/19 12:10:08;;;;;;;8.77;6.30;;;38.80;77.30;;;;;;5033463;28;20225;-73
2022/08/19 12:12:42;;;;;;;10.52;6.85;;;39.00;77.90;;;;;;5015821;28;20199;-82
2022/08/19 12:15:10;;;;;;;9.23;6.78;;;39.10;76.00;;;;;;4999520;28;20202;-74
2022/08/19 12:17:38;;;;;;;12.65;6.70;;;39.00;76.60;;;;;;5015673;28;20217;-72
2022/08/19 12:20:06;;;;;;;8.27;6.40;;;38.90;75.20;;;;;;5015360;28;20202;-74
2022/08/19 12:22:34;;;;;;;11.57;6.38;;;38.60;75.40;;;;;;5015384;28;20200;-74
2022/08/19 12:25:01;;;;;;;8.95;6.40;;;38.60;76.00;;;;;;5014855;28;20195;-76
2022/08/19 12:27:28;;;;;;;10.63;6.38;;;38.70;76.00;;;;;;5015627;28;20221;-73
2022/08/19 12:30:10;;;;;;;10.68;6.47;;;38.80;75.20;;;;;;5015208;28;20705;-74
2022/08/19 12:32:38;;;;;;;9.35;6.45;;;38.80;75.70;;;;;;5032893;28;20547;-74
2022/08/19 12:35:08;;;;;;;12.82;6.55;;;38.80;75.70;;;;;;5033445;28;20311;-73
2022/08/19 12:37:36;;;;;;;11.45;6.40;;;39.00;74.50;;;;;;5016036;28;20207;-74
2022/08/19 12:40:03;;;;;;;10.80;6.30;;;38.80;73.30;;;;;;5015486;28;20648;-73
2022/08/19 12:42:30;;;;;;;12.25;6.70;;;38.80;73.00;;;;;;5015248;28;20205;-74
2022/08/19 12:45:10;;;;;;;10.70;6.57;;;38.70;72.60;;;;;;5015890;28;20294;-73
2022/08/19 12:47:38;;;;;;;12.60;6.43;;;38.50;73.00;;;;;;5015265;28;20290;-73
2022/08/19 12:50:10;;;;;;;10.57;6.43;;;38.70;73.10;;;;;;5014988;28;20202;-73
2022/08/19 12:52:41;;;;;;;10.20;6.15;;;38.70;73.10;;;;;;5015380;28;20206;-73
2022/08/19 12:55:11;;;;;;;9.95;6.20;;;38.60;71.90;;;;;;5032883;28;20233;-75
2022/08/19 12:57:39;;;;;;;8.32;6.05;;;38.50;72.00;;;;;;5032900;28;20214;-75
2022/08/19 13:00:16;;;;;;;11.35;6.13;;;38.50;72.90;;;;;;5032873;28;20171;-82
2022/08/19 13:02:45;;;;;;;7.70;6.10;;;38.30;72.20;;;;;;5016221;28;20293;-76
2022/08/19 13:05:23;;;;;;;9.70;6.45;;;38.20;72.70;;;;;;5016858;28;20195;-73